Airport Name : M R Stefanik

Other Name : Bratislava

ICAO : LZIB

IATA : BTS

FAA :

Latitude : 48.170167

Longitude : 17.212667

Country : Slovakia

Local Date and Time : 4/26/2018 5:52:00 AM

 

TAF (Terminal Aerodrome Forecast)

TAF LZIB 252300Z 2600/2700 34006KT CAVOK BECMG 2602/2604 26008KT 9999 SCT040 BKN090 TEMPO 2604/2616 -RA BKN040 PROB40 TEMPO 2608/2614 29015KT 5000 SHRA SCT032TCU BKN040 BECMG 2618/2620 CAVOK

 

METAR (METeorological Aerodrome Report)

LZIB 260330Z 27007KT 9999 -RA NSC 17/10 Q1012

LZIB 260300Z 31006KT CAVOK 18/08 Q1012

LZIB 260230Z 30005KT CAVOK 18/08 Q1012

LZIB 260200Z 32008KT CAVOK 19/08 Q1012

LZIB 260130Z 32008KT CAVOK 19/07 Q1012

LZIB 260100Z 33005KT CAVOK 19/07 Q1012

LZIB 260030Z 32007KT CAVOK 20/07 Q1012 WS R31

LZIB 260000Z 33005KT CAVOK 20/07 Q1012 WS ALL RWY